createdAt,value
2017-04-30T00:00:35.212Z,1020.5
2017-04-30T00:01:57.680Z,1020.49
2017-04-30T00:03:19.848Z,1020.52
2017-04-30T00:04:41.462Z,1020.5
2017-04-30T00:06:03.863Z,1020.48
2017-04-30T00:07:25.693Z,1020.51
2017-04-30T00:08:47.980Z,1020.45
2017-04-30T00:10:09.826Z,1020.49
2017-04-30T00:11:32.229Z,1020.48
2017-04-30T00:12:54.375Z,1020.5
2017-04-30T00:14:16.224Z,1020.52
2017-04-30T00:15:38.172Z,1020.49
2017-04-30T00:17:00.939Z,1020.48
2017-04-30T00:18:22.449Z,1020.44
2017-04-30T00:19:44.911Z,1020.53
2017-04-30T00:21:06.117Z,1020.48
2017-04-30T00:22:27.869Z,1020.45
2017-04-30T00:23:49.999Z,1020.46
2017-04-30T00:25:11.499Z,1020.47
2017-04-30T00:26:33.748Z,1020.49
2017-04-30T00:27:55.939Z,1020.48
2017-04-30T00:29:17.442Z,1020.44
2017-04-30T00:30:38.982Z,1020.48
2017-04-30T00:32:00.819Z,1020.51
2017-04-30T00:33:23.253Z,1020.5
2017-04-30T00:34:45.067Z,1020.49
2017-04-30T00:36:06.269Z,1020.48
2017-04-30T00:37:28.829Z,1020.48
2017-04-30T00:38:51.010Z,1020.53
2017-04-30T00:40:13.468Z,1020.51
2017-04-30T00:41:35.310Z,1020.49
2017-04-30T00:42:57.755Z,1020.49
2017-04-30T00:44:20.474Z,1020.52
2017-04-30T00:45:42.388Z,1020.44
2017-04-30T00:47:04.201Z,1020.51
2017-04-30T00:48:26.036Z,1020.53
2017-04-30T00:49:48.162Z,1020.5
2017-04-30T00:51:10.313Z,1020.52
2017-04-30T00:52:32.807Z,1020.52
2017-04-30T00:53:54.663Z,1020.55
2017-04-30T00:55:17.062Z,1020.55
2017-04-30T00:56:39.205Z,1020.54
2017-04-30T00:58:01.400Z,1020.54
2017-04-30T00:59:23.526Z,1020.54
2017-04-30T01:00:46.239Z,1020.54
2017-04-30T01:02:07.427Z,1020.51
2017-04-30T01:03:28.964Z,1020.53
2017-04-30T01:04:50.489Z,1020.53
2017-04-30T01:06:12.577Z,1020.53
2017-04-30T01:07:33.840Z,1020.54
2017-04-30T01:08:56.015Z,1020.56
2017-04-30T01:10:17.558Z,1020.52
2017-04-30T01:11:39.739Z,1020.53
2017-04-30T01:13:01.890Z,1020.54
2017-04-30T01:14:23.090Z,1020.48
2017-04-30T01:15:45.234Z,1020.5
2017-04-30T01:17:06.670Z,1020.48
2017-04-30T01:18:29.099Z,1020.5
2017-04-30T01:19:51.248Z,1020.49
2017-04-30T01:21:13.250Z,1020.48
2017-04-30T01:22:35.006Z,1020.49
2017-04-30T01:23:57.148Z,1020.49
2017-04-30T01:25:18.700Z,1020.48
2017-04-30T01:26:40.579Z,1020.5
2017-04-30T01:28:02.349Z,1020.49
2017-04-30T01:29:23.861Z,1020.51
2017-04-30T01:30:45.368Z,1020.52
2017-04-30T01:32:06.577Z,1020.55
2017-04-30T01:33:29.359Z,1020.52
2017-04-30T01:34:50.559Z,1020.52
2017-04-30T01:36:12.384Z,1020.52
2017-04-30T01:37:34.217Z,1020.52
2017-04-30T01:38:56.460Z,1020.53
2017-04-30T01:40:17.970Z,1020.51
2017-04-30T01:41:40.130Z,1020.52
2017-04-30T01:43:01.640Z,1020.52
2017-04-30T01:44:23.725Z,1020.57
2017-04-30T01:45:45.242Z,1020.54
2017-04-30T01:47:06.729Z,1020.57
2017-04-30T01:48:28.300Z,1020.6
2017-04-30T01:49:50.161Z,1020.61
2017-04-30T01:51:11.670Z,1020.59
2017-04-30T01:52:33.703Z,1020.61
2017-04-30T01:53:55.550Z,1020.59
2017-04-30T01:55:17.640Z,1020.6
2017-04-30T01:56:39.549Z,1020.58
2017-04-30T01:58:01.420Z,1020.56
2017-04-30T01:59:23.887Z,1020.58
2017-04-30T02:00:46.279Z,1020.59
2017-04-30T02:02:08.510Z,1020.56
2017-04-30T02:03:30.340Z,1020.56
2017-04-30T02:04:52.180Z,1020.59
2017-04-30T02:06:14.382Z,1020.54
2017-04-30T02:07:36.257Z,1020.56
2017-04-30T02:08:57.797Z,1020.51
2017-04-30T02:10:19.611Z,1020.54
2017-04-30T02:11:42.033Z,1020.54
2017-04-30T02:13:03.581Z,1020.55
2017-04-30T02:14:25.408Z,1020.51
2017-04-30T02:15:46.913Z,1020.48
2017-04-30T02:17:09.084Z,1020.49
2017-04-30T02:18:31.230Z,1020.5
2017-04-30T02:19:53.087Z,1020.55
2017-04-30T02:21:14.362Z,1020.52
2017-04-30T02:22:36.859Z,1020.52
2017-04-30T02:23:59.061Z,1020.5
2017-04-30T02:25:20.607Z,1020.52
2017-04-30T02:26:42.742Z,1020.52
2017-04-30T02:28:04.689Z,1020.54
2017-04-30T02:29:26.520Z,1020.54
2017-04-30T02:30:48.360Z,1020.52
2017-04-30T02:32:09.849Z,1020.55
2017-04-30T02:33:31.631Z,1020.52
2017-04-30T02:34:54.079Z,1020.56
2017-04-30T02:36:15.577Z,1020.54
2017-04-30T02:37:37.079Z,1020.51
2017-04-30T02:38:59.227Z,1020.54
2017-04-30T02:40:21.780Z,1020.55
2017-04-30T02:41:43.609Z,1020.51
2017-04-30T02:43:05.738Z,1020.56
2017-04-30T02:44:27.829Z,1020.59
2017-04-30T02:45:50.386Z,1020.56
2017-04-30T02:47:12.319Z,1020.53
2017-04-30T02:48:33.941Z,1020.57
2017-04-30T02:49:55.756Z,1020.55
2017-04-30T02:51:18.218Z,1020.57
2017-04-30T02:52:40.049Z,1020.55
2017-04-30T02:54:02.526Z,1020.54
2017-04-30T02:55:24.599Z,1020.48
2017-04-30T02:56:46.537Z,1020.52
2017-04-30T02:58:07.764Z,1020.43
2017-04-30T02:59:29.913Z,1020.46
2017-04-30T03:00:52.000Z,1020.42
2017-04-30T03:02:13.903Z,1020.44
2017-04-30T03:03:36.195Z,1020.44
2017-04-30T03:04:57.709Z,1020.44
2017-04-30T03:06:20.201Z,1020.45
2017-04-30T03:07:42.019Z,1020.46
2017-04-30T03:09:03.851Z,1020.48
2017-04-30T03:10:25.975Z,1020.49
2017-04-30T03:11:48.019Z,1020.48
2017-04-30T03:13:09.946Z,1020.47
2017-04-30T03:14:31.779Z,1020.5
2017-04-30T03:15:53.900Z,1020.48
2017-04-30T03:17:15.798Z,1020.52
2017-04-30T03:18:37.318Z,1020.5
2017-04-30T03:19:59.149Z,1020.49
2017-04-30T03:21:20.349Z,1020.51
2017-04-30T03:22:42.109Z,1020.47
2017-04-30T03:24:03.984Z,1020.5
2017-04-30T03:25:26.166Z,1020.49
2017-04-30T03:26:48.309Z,1020.5
2017-04-30T03:28:10.792Z,1020.47
2017-04-30T03:29:32.619Z,1020.51
2017-04-30T03:30:54.185Z,1020.47
2017-04-30T03:32:15.690Z,1020.47
2017-04-30T03:33:38.184Z,1020.41
2017-04-30T03:35:00.461Z,1020.44
2017-04-30T03:36:22.298Z,1020.39
2017-04-30T03:37:44.135Z,1020.41
2017-04-30T03:39:06.229Z,1020.41
2017-04-30T03:40:28.390Z,1020.45
2017-04-30T03:41:49.950Z,1020.48
2017-04-30T03:43:11.585Z,1020.45
2017-04-30T03:44:33.698Z,1020.4
2017-04-30T03:45:55.543Z,1020.45
2017-04-30T03:47:17.669Z,1020.44
2017-04-30T03:48:39.224Z,1020.48
2017-04-30T03:50:01.784Z,1020.48
2017-04-30T03:51:24.231Z,1020.43
2017-04-30T03:52:46.040Z,1020.5
2017-04-30T03:54:07.546Z,1020.49
2017-04-30T03:55:29.456Z,1020.42
2017-04-30T03:56:51.337Z,1020.47
2017-04-30T03:58:13.161Z,1020.48
2017-04-30T03:59:35.101Z,1020.51
2017-04-30T04:00:56.941Z,1020.55
2017-04-30T04:02:19.395Z,1020.62
2017-04-30T04:03:40.891Z,1020.54
2017-04-30T04:05:02.399Z,1020.57
2017-04-30T04:06:25.099Z,1020.61
2017-04-30T04:07:47.549Z,1020.6
2017-04-30T04:09:09.691Z,1020.67
2017-04-30T04:10:31.188Z,1020.68
2017-04-30T04:11:53.407Z,1020.65
2017-04-30T04:13:14.788Z,1020.67
2017-04-30T04:14:36.940Z,1020.68
2017-04-30T04:15:59.152Z,1020.74
2017-04-30T04:17:21.908Z,1020.7
2017-04-30T04:18:43.423Z,1020.73
2017-04-30T04:20:05.568Z,1020.75
2017-04-30T04:21:27.380Z,1020.76
2017-04-30T04:22:49.129Z,1020.75
2017-04-30T04:24:10.358Z,1020.76
2017-04-30T04:25:31.868Z,1020.77
2017-04-30T04:26:53.704Z,1020.8
2017-04-30T04:28:15.769Z,1020.77
2017-04-30T04:29:37.602Z,1020.82
2017-04-30T04:30:59.138Z,1020.83
2017-04-30T04:32:20.411Z,1020.77
2017-04-30T04:33:42.547Z,1020.75
2017-04-30T04:35:04.381Z,1020.75
2017-04-30T04:36:25.878Z,1020.77
2017-04-30T04:37:47.370Z,1020.72
2017-04-30T04:39:09.528Z,1020.75
2017-04-30T04:40:31.128Z,1020.75
2017-04-30T04:41:53.583Z,1020.77
2017-04-30T04:43:15.403Z,1020.74
2017-04-30T04:44:37.468Z,1020.74
2017-04-30T04:45:59.296Z,1020.74
2017-04-30T04:47:21.467Z,1020.75
2017-04-30T04:48:43.918Z,1020.74
2017-04-30T04:50:05.727Z,1020.75
2017-04-30T04:51:27.556Z,1020.79
2017-04-30T04:52:49.770Z,1020.81
2017-04-30T04:54:12.228Z,1020.74
2017-04-30T04:55:34.066Z,1020.69
2017-04-30T04:56:55.580Z,1020.76
2017-04-30T04:58:17.738Z,1020.78
2017-04-30T04:59:39.250Z,1020.79
2017-04-30T05:01:01.658Z,1020.79
2017-04-30T05:02:23.807Z,1020.76
2017-04-30T05:03:45.952Z,1020.76
2017-04-30T05:05:08.080Z,1020.79
2017-04-30T05:06:30.301Z,1020.78
2017-04-30T05:07:52.190Z,1020.75
2017-04-30T05:09:14.006Z,1020.76
2017-04-30T05:10:35.540Z,1020.75
2017-04-30T05:11:57.668Z,1020.76
2017-04-30T05:13:20.228Z,1020.77
2017-04-30T05:14:41.760Z,1020.79
2017-04-30T05:16:03.572Z,1020.84
2017-04-30T05:17:25.318Z,1020.84
2017-04-30T05:18:47.468Z,1020.91
2017-04-30T05:20:09.049Z,1020.98
2017-04-30T05:21:31.516Z,1020.96
2017-04-30T05:22:53.958Z,1020.98
2017-04-30T05:24:15.520Z,1021.01
2017-04-30T05:25:37.668Z,1021.07
2017-04-30T05:26:59.484Z,1021.08
2017-04-30T05:28:21.530Z,1021.1
2017-04-30T05:29:43.053Z,1021.08
2017-04-30T05:31:04.900Z,1021.05
2017-04-30T05:32:27.358Z,1021.08
2017-04-30T05:33:49.860Z,1021.1
2017-04-30T05:35:12.306Z,1021.1
2017-04-30T05:36:34.753Z,1021.14
2017-04-30T05:37:56.907Z,1021.15
2017-04-30T05:39:19.169Z,1021.14
2017-04-30T05:40:41.317Z,1021.1
2017-04-30T05:42:03.148Z,1021.12
2017-04-30T05:43:25.050Z,1021.1
2017-04-30T05:44:47.553Z,1021.09
2017-04-30T05:46:09.209Z,1021.11
2017-04-30T05:47:30.798Z,1021.11
2017-04-30T05:48:52.368Z,1021.13
2017-04-30T05:50:14.995Z,1021.17
2017-04-30T05:51:36.867Z,1021.11
2017-04-30T05:52:58.809Z,1021.15
2017-04-30T05:54:20.977Z,1021.16
2017-04-30T05:55:42.813Z,1021.17
2017-04-30T05:57:04.991Z,1021.24
2017-04-30T05:58:27.155Z,1021.27
2017-04-30T05:59:49.630Z,1021.23
2017-04-30T06:01:12.154Z,1021.23
2017-04-30T06:02:34.317Z,1021.21
2017-04-30T06:03:56.460Z,1021.3
2017-04-30T06:05:18.739Z,1021.31
2017-04-30T06:06:40.952Z,1021.27
2017-04-30T06:08:03.425Z,1021.26
2017-04-30T06:09:25.374Z,1021.23
2017-04-30T06:10:47.217Z,1021.25
2017-04-30T06:12:08.718Z,1021.28
2017-04-30T06:13:30.865Z,1021.28
2017-04-30T06:14:53.188Z,1021.28
2017-04-30T06:16:15.651Z,1021.27
2017-04-30T06:17:38.519Z,1021.33
2017-04-30T06:19:00.666Z,1021.28
2017-04-30T06:20:22.840Z,1021.28
2017-04-30T06:21:45.302Z,1021.29
2017-04-30T06:23:07.538Z,1021.19
2017-04-30T06:24:29.076Z,1021.16
2017-04-30T06:25:50.934Z,1021.17
2017-04-30T06:27:12.768Z,1021.16
2017-04-30T06:28:34.919Z,1021.22
2017-04-30T06:29:57.098Z,1021.12
2017-04-30T06:31:19.575Z,1021.18
2017-04-30T06:32:42.037Z,1021.14
2017-04-30T06:34:03.881Z,1021.17
2017-04-30T06:35:26.042Z,1021.21
2017-04-30T06:36:47.255Z,1021.17
2017-04-30T06:38:09.749Z,1021.17
2017-04-30T06:39:31.858Z,1021.14
2017-04-30T06:40:53.398Z,1021.14
2017-04-30T06:42:15.608Z,1021.09
2017-04-30T06:43:37.467Z,1021.13
2017-04-30T06:44:59.678Z,1021.09
2017-04-30T06:46:21.538Z,1021.11
2017-04-30T06:47:43.085Z,1021.11
2017-04-30T06:49:04.999Z,1021.12
2017-04-30T06:50:27.900Z,1021.08
2017-04-30T06:51:50.045Z,1021.08
2017-04-30T06:53:12.201Z,1021.1
2017-04-30T06:54:33.417Z,1021.11
2017-04-30T06:55:55.621Z,1021.08
2017-04-30T06:57:17.795Z,1021.07
2017-04-30T06:58:40.058Z,1021.07
2017-04-30T07:00:02.539Z,1021.04
2017-04-30T07:01:24.632Z,1021.01
2017-04-30T07:02:46.574Z,1021.07
2017-04-30T07:04:08.696Z,1021.08
2017-04-30T07:05:30.387Z,1021.06
2017-04-30T07:06:52.497Z,1021.03
2017-04-30T07:08:14.391Z,1021.03
2017-04-30T07:09:36.231Z,1021.04
2017-04-30T07:10:58.727Z,1021.1
2017-04-30T07:12:20.607Z,1021.04
2017-04-30T07:13:42.498Z,1021.06
2017-04-30T07:15:04.749Z,1021.06
2017-04-30T07:16:26.929Z,1021.05
2017-04-30T07:17:49.108Z,1020.97
2017-04-30T07:19:10.981Z,1021.11
2017-04-30T07:20:33.650Z,1021.04
2017-04-30T07:21:55.167Z,1021
2017-04-30T07:23:17.900Z,1021
2017-04-30T07:24:39.849Z,1020.98
2017-04-30T07:26:02.040Z,1020.99
2017-04-30T07:27:24.520Z,1021.03
2017-04-30T07:28:46.667Z,1021
2017-04-30T07:30:08.888Z,1020.98
2017-04-30T07:31:31.058Z,1021.09
2017-04-30T07:32:53.216Z,1021.01
2017-04-30T07:34:16.165Z,1021.03
2017-04-30T07:35:38.048Z,1020.93
2017-04-30T07:37:00.232Z,1020.89
2017-04-30T07:38:22.438Z,1020.86
2017-04-30T07:39:44.628Z,1020.9
2017-04-30T07:41:07.168Z,1020.79
2017-04-30T07:42:29.380Z,1020.85
2017-04-30T07:43:51.894Z,1020.75
2017-04-30T07:45:14.020Z,1020.82
2017-04-30T07:46:36.542Z,1020.91
2017-04-30T07:47:58.774Z,1020.68
2017-04-30T07:49:20.940Z,1020.76
2017-04-30T07:50:42.947Z,1020.8
2017-04-30T07:52:05.615Z,1020.75
2017-04-30T07:53:27.166Z,1020.75
2017-04-30T07:54:49.038Z,1020.71
2017-04-30T07:56:11.879Z,1020.66
2017-04-30T07:57:33.720Z,1020.6
2017-04-30T07:58:55.576Z,1020.51
2017-04-30T08:00:17.448Z,1020.34
2017-04-30T08:01:39.693Z,1020.29
2017-04-30T08:03:01.561Z,1020.27
2017-04-30T08:04:23.744Z,1020.24
2017-04-30T08:05:45.677Z,1020.19
2017-04-30T08:07:07.561Z,1020.16
2017-04-30T08:08:29.726Z,1020.13
2017-04-30T08:09:51.952Z,1020.13
2017-04-30T08:11:13.891Z,1020.12
2017-04-30T08:12:36.471Z,1020.09
2017-04-30T08:13:58.487Z,1020.14
2017-04-30T08:15:20.129Z,1020.03
2017-04-30T08:16:42.008Z,1020.05
2017-04-30T08:18:04.554Z,1019.99
2017-04-30T08:19:26.410Z,1019.94
2017-04-30T08:20:48.887Z,1019.97
2017-04-30T08:22:11.059Z,1019.88
2017-04-30T08:23:33.458Z,1019.87
2017-04-30T08:24:54.968Z,1019.88
2017-04-30T08:26:17.154Z,1019.86
2017-04-30T08:27:39.354Z,1019.76
2017-04-30T08:29:01.777Z,1019.78
2017-04-30T08:30:23.939Z,1019.73
2017-04-30T08:31:46.107Z,1019.72
2017-04-30T08:33:08.580Z,1019.67
2017-04-30T08:34:30.991Z,1019.71
2017-04-30T08:35:53.489Z,1019.67
2017-04-30T08:37:15.670Z,1019.69
2017-04-30T08:38:37.528Z,1019.7
2017-04-30T08:39:59.766Z,1019.77
2017-04-30T08:41:20.989Z,1019.69
2017-04-30T08:42:43.557Z,1019.69
2017-04-30T08:44:05.258Z,1019.64
2017-04-30T08:45:28.111Z,1019.61
2017-04-30T08:46:50.258Z,1019.57
2017-04-30T08:48:12.179Z,1019.58
2017-04-30T08:49:33.709Z,1019.54
2017-04-30T08:50:55.929Z,1019.52
2017-04-30T08:52:18.064Z,1019.54
2017-04-30T08:53:40.558Z,1019.5
2017-04-30T08:55:03.169Z,1019.55
2017-04-30T08:56:25.409Z,1019.48
2017-04-30T08:57:47.578Z,1019.47
2017-04-30T08:59:09.876Z,1019.53
2017-04-30T09:00:31.547Z,1019.52
2017-04-30T09:01:54.145Z,1019.5
2017-04-30T09:03:16.612Z,1019.39
2017-04-30T09:04:38.249Z,1019.44
2017-04-30T09:05:59.810Z,1019.45
2017-04-30T09:07:22.588Z,1019.4
2017-04-30T09:08:44.724Z,1019.49
2017-04-30T09:10:06.878Z,1019.47
2017-04-30T09:11:29.389Z,1019.42
2017-04-30T09:12:51.629Z,1019.51
2017-04-30T09:14:14.229Z,1019.47
2017-04-30T09:15:36.390Z,1019.37
2017-04-30T09:16:58.878Z,1019.35
2017-04-30T09:18:21.390Z,1019.37
2017-04-30T09:19:43.870Z,1019.34
2017-04-30T09:21:06.110Z,1019.29
2017-04-30T09:22:27.972Z,1019.33
2017-04-30T09:23:50.398Z,1019.35
2017-04-30T09:25:12.619Z,1019.24
2017-04-30T09:26:34.775Z,1019.23
2017-04-30T09:27:56.979Z,1019.19
2017-04-30T09:29:19.873Z,1019.14
2017-04-30T09:30:42.361Z,1019.14
2017-04-30T09:32:03.960Z,1019.19
2017-04-30T09:33:26.119Z,1019.12
2017-04-30T09:34:48.540Z,1019.23
2017-04-30T09:36:09.882Z,1019.09
2017-04-30T09:37:32.519Z,1019.15
2017-04-30T09:38:54.760Z,1019.17
2017-04-30T09:40:16.877Z,1019.06
2017-04-30T09:41:39.340Z,1019.04
2017-04-30T09:43:01.541Z,1019.12
2017-04-30T09:44:24.041Z,1019.03
2017-04-30T09:45:46.459Z,1018.97
2017-04-30T09:47:08.301Z,1018.94
2017-04-30T09:48:30.452Z,1018.85
2017-04-30T09:49:52.603Z,1018.99
2017-04-30T09:51:15.339Z,1019.03
2017-04-30T09:52:37.175Z,1018.87
2017-04-30T09:53:58.728Z,1018.84
2017-04-30T09:55:20.571Z,1018.77
2017-04-30T09:56:43.119Z,1018.83
2017-04-30T09:58:04.630Z,1018.92
2017-04-30T09:59:26.477Z,1018.91
2017-04-30T10:00:48.052Z,1018.86
2017-04-30T10:02:10.509Z,1018.78
2017-04-30T10:03:32.520Z,1018.89
2017-04-30T10:04:54.675Z,1018.72
2017-04-30T10:06:17.162Z,1018.81
2017-04-30T10:07:39.950Z,1018.82
2017-04-30T10:09:01.208Z,1018.66
2017-04-30T10:10:23.679Z,1018.64
2017-04-30T10:11:45.521Z,1018.72
2017-04-30T10:13:08.427Z,1018.63
2017-04-30T10:14:30.946Z,1018.69
2017-04-30T10:15:53.191Z,1018.7
2017-04-30T10:17:14.730Z,1018.58
2017-04-30T10:18:37.149Z,1018.58
2017-04-30T10:19:58.678Z,1018.53
2017-04-30T10:21:20.496Z,1018.51
2017-04-30T10:22:42.651Z,1018.63
2017-04-30T10:24:05.056Z,1018.58
2017-04-30T10:25:27.564Z,1018.45
2017-04-30T10:26:49.798Z,1018.35
2017-04-30T10:28:12.273Z,1018.4
2017-04-30T10:29:34.781Z,1018.4
2017-04-30T10:30:56.618Z,1018.37
2017-04-30T10:32:18.449Z,1018.36
2017-04-30T10:33:40.619Z,1018.39
2017-04-30T10:35:02.830Z,1018.31
2017-04-30T10:36:24.989Z,1018.43
2017-04-30T10:37:47.359Z,1018.42
2017-04-30T10:39:09.557Z,1018.34
2017-04-30T10:40:31.649Z,1018.4
2017-04-30T10:41:53.538Z,1018.26
2017-04-30T10:43:15.673Z,1018.24
2017-04-30T10:44:38.180Z,1018.25
2017-04-30T10:46:00.590Z,1018.14
2017-04-30T10:47:22.409Z,1018.35
2017-04-30T10:48:43.928Z,1018.09
2017-04-30T10:50:06.101Z,1018.05
2017-04-30T10:51:28.878Z,1018.06
2017-04-30T10:52:51.340Z,1018.07
2017-04-30T10:54:13.320Z,1018.07
2017-04-30T10:55:35.721Z,1018.14
2017-04-30T10:56:58.249Z,1018.08
2017-04-30T10:58:20.448Z,1018
2017-04-30T10:59:42.000Z,1018.08
2017-04-30T11:01:03.869Z,1018.14
2017-04-30T11:02:26.630Z,1018
2017-04-30T11:03:49.172Z,1018.03
2017-04-30T11:05:11.637Z,1018.05
2017-04-30T11:06:33.189Z,1018.04
2017-04-30T11:07:54.960Z,1017.91
2017-04-30T11:09:17.449Z,1017.95
2017-04-30T11:10:39.784Z,1017.89
2017-04-30T11:12:01.939Z,1017.88
2017-04-30T11:13:24.347Z,1017.86
2017-04-30T11:14:46.831Z,1017.84
2017-04-30T11:16:08.384Z,1017.94
2017-04-30T11:17:30.610Z,1017.81
2017-04-30T11:18:53.073Z,1017.7
2017-04-30T11:20:15.380Z,1017.78
2017-04-30T11:21:37.568Z,1017.82
2017-04-30T11:22:59.435Z,1017.81
2017-04-30T11:24:21.681Z,1017.65
2017-04-30T11:25:43.850Z,1017.65
2017-04-30T11:27:05.437Z,1017.72
2017-04-30T11:28:28.039Z,1017.64
2017-04-30T11:29:50.148Z,1017.75
2017-04-30T11:31:11.660Z,1017.57
2017-04-30T11:32:33.923Z,1017.55
2017-04-30T11:33:56.090Z,1017.63
2017-04-30T11:35:18.298Z,1017.53
2017-04-30T11:36:40.900Z,1017.49
2017-04-30T11:38:03.380Z,1017.48
2017-04-30T11:39:25.638Z,1017.49
2017-04-30T11:40:47.780Z,1017.44
2017-04-30T11:42:09.292Z,1017.38
2017-04-30T11:43:31.505Z,1017.33
2017-04-30T11:44:53.701Z,1017.36
2017-04-30T11:46:16.532Z,1017.35
2017-04-30T11:47:38.373Z,1017.4
2017-04-30T11:49:00.857Z,1017.28
2017-04-30T11:50:22.398Z,1017.36
2017-04-30T11:51:44.820Z,1017.29
2017-04-30T11:53:07.311Z,1017.21
2017-04-30T11:54:29.176Z,1017.21
2017-04-30T11:55:51.348Z,1017.25
2017-04-30T11:57:13.916Z,1017.36
2017-04-30T11:58:36.073Z,1017.2
2017-04-30T11:59:58.250Z,1017.18
2017-04-30T12:01:20.099Z,1017.14
2017-04-30T12:02:41.894Z,1017.17
2017-04-30T12:04:04.151Z,1017.25
2017-04-30T12:05:25.978Z,1017.16
2017-04-30T12:06:48.036Z,1017.11
2017-04-30T12:08:10.181Z,1017.17
2017-04-30T12:09:32.654Z,1017.18
2017-04-30T12:10:54.192Z,1017.16
2017-04-30T12:12:16.388Z,1017.09
2017-04-30T12:13:38.678Z,1017.07
2017-04-30T12:15:01.172Z,1017.13
2017-04-30T12:16:22.771Z,1016.94
2017-04-30T12:17:44.948Z,1016.95
2017-04-30T12:19:07.149Z,1017.01
2017-04-30T12:20:29.689Z,1016.98
2017-04-30T12:21:51.877Z,1016.91
2017-04-30T12:23:13.429Z,1016.9
2017-04-30T12:24:35.529Z,1016.92
2017-04-30T12:25:57.470Z,1016.87
2017-04-30T12:27:19.710Z,1016.78
2017-04-30T12:28:42.174Z,1016.85
2017-04-30T12:30:04.312Z,1016.66
2017-04-30T12:31:26.163Z,1016.86
2017-04-30T12:32:48.377Z,1016.95
2017-04-30T12:34:10.539Z,1016.79
2017-04-30T12:35:33.043Z,1016.72
2017-04-30T12:36:54.574Z,1016.76
2017-04-30T12:38:16.210Z,1016.79
2017-04-30T12:39:38.416Z,1016.71
2017-04-30T12:41:00.291Z,1016.71
2017-04-30T12:42:22.149Z,1016.7
2017-04-30T12:43:43.700Z,1016.68
2017-04-30T12:45:06.172Z,1016.71
2017-04-30T12:46:27.997Z,1016.64
2017-04-30T12:47:50.138Z,1016.6
2017-04-30T12:49:12.350Z,1016.71
2017-04-30T12:50:34.394Z,1016.59
2017-04-30T12:51:56.268Z,1016.62
2017-04-30T12:53:18.769Z,1016.44
2017-04-30T12:54:40.608Z,1016.47
2017-04-30T12:56:02.569Z,1016.5
2017-04-30T12:57:25.083Z,1016.45
2017-04-30T12:58:47.239Z,1016.46
2017-04-30T13:00:09.089Z,1016.33
2017-04-30T13:01:31.748Z,1016.38
2017-04-30T13:02:54.280Z,1016.4
2017-04-30T13:04:16.781Z,1016.38
2017-04-30T13:05:39.271Z,1016.25
2017-04-30T13:07:01.441Z,1016.39
2017-04-30T13:08:23.641Z,1016.27
2017-04-30T13:09:45.538Z,1016.32
2017-04-30T13:11:07.394Z,1016.22
2017-04-30T13:12:29.639Z,1016.31
2017-04-30T13:13:52.086Z,1016.26
2017-04-30T13:15:13.647Z,1016.22
2017-04-30T13:16:35.490Z,1016.17
2017-04-30T13:17:57.375Z,1016.17
2017-04-30T13:19:19.629Z,1016.14
2017-04-30T13:20:42.118Z,1016.13
2017-04-30T13:22:04.287Z,1016.15
2017-04-30T13:23:26.457Z,1016.14
2017-04-30T13:24:49.313Z,1016.17
2017-04-30T13:26:11.217Z,1016.19
2017-04-30T13:27:33.067Z,1016.05
2017-04-30T13:28:54.915Z,1016.11
2017-04-30T13:30:17.097Z,1016.02
2017-04-30T13:31:39.249Z,1015.97
2017-04-30T13:33:01.417Z,1016.12
2017-04-30T13:34:23.571Z,1015.89
2017-04-30T13:35:45.497Z,1015.92
2017-04-30T13:37:07.027Z,1015.87
2017-04-30T13:38:29.213Z,1015.88
2017-04-30T13:39:51.699Z,1015.95
2017-04-30T13:41:14.150Z,1015.73
2017-04-30T13:42:35.679Z,1015.71
2017-04-30T13:43:57.849Z,1015.67
2017-04-30T13:45:19.745Z,1015.67
2017-04-30T13:46:42.077Z,1015.72
2017-04-30T13:48:03.951Z,1015.65
2017-04-30T13:49:25.915Z,1015.68
2017-04-30T13:50:47.121Z,1015.71
2017-04-30T13:52:09.567Z,1015.69
2017-04-30T13:53:31.801Z,1015.62
2017-04-30T13:54:54.295Z,1015.56
2017-04-30T13:56:16.486Z,1015.52
2017-04-30T13:57:38.897Z,1015.49
2017-04-30T13:59:00.848Z,1015.44
2017-04-30T14:00:22.784Z,1015.47
2017-04-30T14:01:44.375Z,1015.66
2017-04-30T14:03:06.799Z,1015.52
2017-04-30T14:04:28.709Z,1015.34
2017-04-30T14:05:50.611Z,1015.34
2017-04-30T14:07:12.880Z,1015.18
2017-04-30T14:08:35.783Z,1015.27
2017-04-30T14:09:58.291Z,1015.29
2017-04-30T14:11:20.551Z,1015.24
2017-04-30T14:12:43.039Z,1015.37
2017-04-30T14:14:05.447Z,1015.29
2017-04-30T14:15:27.924Z,1015.14
2017-04-30T14:16:50.258Z,1015.16
2017-04-30T14:18:12.420Z,1015.16
2017-04-30T14:19:35.218Z,1015.23
2017-04-30T14:20:57.089Z,1015.28
2017-04-30T14:22:19.300Z,1015.23
2017-04-30T14:23:41.519Z,1015.28
2017-04-30T14:25:03.991Z,1015.25
2017-04-30T14:26:25.836Z,1015.18
2017-04-30T14:27:47.697Z,1015.15
2017-04-30T14:29:09.558Z,1015.15
2017-04-30T14:30:31.760Z,1015.27
2017-04-30T14:31:53.638Z,1015.22
2017-04-30T14:33:15.984Z,1015.09
2017-04-30T14:34:38.467Z,1015.08
2017-04-30T14:36:00.351Z,1015.1
2017-04-30T14:37:22.215Z,1015.07
2017-04-30T14:38:44.114Z,1014.99
2017-04-30T14:40:06.298Z,1015.08
2017-04-30T14:41:29.062Z,1015.23
2017-04-30T14:42:50.909Z,1015.13
2017-04-30T14:44:13.389Z,1015.04
2017-04-30T14:45:35.649Z,1014.95
2017-04-30T14:46:57.762Z,1014.97
2017-04-30T14:48:20.110Z,1014.98
2017-04-30T14:49:42.408Z,1015.03
2017-04-30T14:51:04.267Z,1014.95
2017-04-30T14:52:26.493Z,1014.77
2017-04-30T14:53:49.018Z,1014.86
2017-04-30T14:55:10.858Z,1014.72
2017-04-30T14:56:33.317Z,1014.7
2017-04-30T14:57:55.832Z,1014.75
2017-04-30T14:59:18.329Z,1014.81
2017-04-30T15:00:40.566Z,1014.75
2017-04-30T15:02:03.036Z,1014.67
2017-04-30T15:03:25.236Z,1014.63
2017-04-30T15:04:47.787Z,1014.65
2017-04-30T15:06:10.302Z,1014.6
2017-04-30T15:07:32.469Z,1014.63
2017-04-30T15:08:55.200Z,1014.74
2017-04-30T15:10:17.483Z,1014.71
2017-04-30T15:11:39.666Z,1014.62
2017-04-30T15:13:01.897Z,1014.7
2017-04-30T15:14:23.794Z,1014.68
2017-04-30T15:15:46.268Z,1014.7
2017-04-30T15:17:08.756Z,1014.57
2017-04-30T15:18:30.918Z,1014.56
2017-04-30T15:19:53.345Z,1014.58
2017-04-30T15:21:15.226Z,1014.55
2017-04-30T15:22:37.253Z,1014.53
2017-04-30T15:23:59.129Z,1014.64
2017-04-30T15:25:21.279Z,1014.62
2017-04-30T15:26:43.127Z,1014.62
2017-04-30T15:28:04.996Z,1014.7
2017-04-30T15:29:26.565Z,1014.51
2017-04-30T15:30:48.407Z,1014.5
2017-04-30T15:32:10.240Z,1014.49
2017-04-30T15:33:31.787Z,1014.56
2017-04-30T15:34:54.002Z,1014.51
2017-04-30T15:36:16.425Z,1014.43
2017-04-30T15:37:37.969Z,1014.41
2017-04-30T15:38:59.817Z,1014.42
2017-04-30T15:40:22.316Z,1014.47
2017-04-30T15:41:44.747Z,1014.55
2017-04-30T15:43:06.925Z,1014.3
2017-04-30T15:44:28.794Z,1014.3
2017-04-30T15:45:50.966Z,1014.22
2017-04-30T15:47:13.477Z,1014.23
2017-04-30T15:48:35.967Z,1014.22
2017-04-30T15:49:58.480Z,1014.23
2017-04-30T15:51:20.423Z,1014.19
2017-04-30T15:52:41.929Z,1014.2
2017-04-30T15:54:04.058Z,1014.14
2017-04-30T15:55:26.228Z,1014.16
2017-04-30T15:56:48.391Z,1014.18
2017-04-30T15:58:10.802Z,1014.16
2017-04-30T15:59:32.679Z,1014.17
2017-04-30T16:00:54.815Z,1014.17
2017-04-30T16:02:17.009Z,1014.05
2017-04-30T16:03:39.613Z,1014
2017-04-30T16:05:01.482Z,1014
2017-04-30T16:06:23.676Z,1014.01
2017-04-30T16:07:45.856Z,1014.07
2017-04-30T16:09:08.401Z,1014.14
2017-04-30T16:10:30.901Z,1014.02
2017-04-30T16:11:53.267Z,1014.03
2017-04-30T16:13:14.631Z,1014.02
2017-04-30T16:14:36.308Z,1014
2017-04-30T16:15:58.181Z,1013.99
2017-04-30T16:17:20.036Z,1014.02
2017-04-30T16:18:42.536Z,1013.96
2017-04-30T16:20:04.663Z,1013.98
2017-04-30T16:21:26.517Z,1013.98
2017-04-30T16:22:48.826Z,1013.93
2017-04-30T16:24:11.305Z,1013.89
2017-04-30T16:25:33.852Z,1013.89
2017-04-30T16:26:56.015Z,1013.95
2017-04-30T16:28:18.628Z,1013.93
2017-04-30T16:29:41.159Z,1014.03
2017-04-30T16:31:03.482Z,1013.96
2017-04-30T16:32:25.334Z,1014.03
2017-04-30T16:33:47.278Z,1013.89
2017-04-30T16:35:09.767Z,1013.87
2017-04-30T16:36:32.348Z,1013.84